Terminal Aerodrome Forecast
Issued by NWS

Home | Current Version | Previous Version | Text Only | Print | Product List | Glossary On
Versions: 1 2 3 4 5 6 7 8 9 10 11 12 13 14 15 16
729
FTUS45 KVEF 291120
TAFVGT
TAF
KVGT 291120Z 2912/3012 33015G25KT P6SM SKC
     FM291500 35022G30KT P6SM SKC
     FM292000 03012G20KT P6SM SKC
     FM300300 05007KT P6SM SKC
     FM300800 34006KT P6SM SKC=

USA.gov is the U.S. government's official web portal to all federal, state and local government web resources and services.